Altisurface de La Taillade

METAR LFLW TAF LFCR
-2 °C
°C
-
°C
19m
Età
05:19:27
LT
04:19
UTC
0 ft

1.000

2.000

3.000

4.000

5.000

VFR
<?= Yii::t('app', 'Wind direction') ?> <?= Yii::t('app', 'of'); ?>
330°
08:14
Alba
80%
Umidità
Taglio del vento
Chiuso/Neve
Raggio visivo RWY
Condizione della RWY
Visibilità verticale
Visibilità minima
CAVOK
Tendenza
Correzione
Rapporto speciale
1018 hPa
QNH
METAR LFLW 280400Z AUTO 33008KT CAVOK M02/M05 Q1018
Cielo sereno
0 kt
0 kt
05:00
VFR
8 kt
06:00
VFR
8 kt
07:00
VFR
8 kt
08:00
VFR
8 kt
09:00
VFR
8 kt
10:00
VFR
8 kt
11:00
VFR
8 kt
10 km+
Vista
No
Base nuvolosa
8 kt
Vento
metar-taf.com/FR-0290

Metar-Taf.com

Decodificatore visivo

Noi e le terze parti seguiamo il tuo comportamento su internet con i cookie. Se continui, riteniamo che tu sia d'accordo con la nostra Politica sui cookie.